Wetterdaten: Woche 14.09.15 - 20.09.15 (KW38)
Datum Zeit Temp. Auen Feucht Auen Luftdruck Regen Richtung Windben
14.09.2015 00:00 13,8 C 83 % 1007,7 hPa 0,0 mm W 6,5 km/h (2 Bft)
14.09.2015 01:00 12,5 C 86 % 1007,0 hPa 0,0 mm W 5,1 km/h (1 Bft)
14.09.2015 02:00 12,1 C 87 % 1006,4 hPa 0,0 mm W 4,8 km/h (1 Bft)
14.09.2015 03:00 11,8 C 87 % 1006,1 hPa 0,0 mm W-SW 3,7 km/h (1 Bft)
14.09.2015 04:00 12,0 C 88 % 1005,4 hPa 0,0 mm W 1,7 km/h (1 Bft)
14.09.2015 05:00 13,4 C 86 % 1005,0 hPa 0,0 mm W 4,5 km/h (1 Bft)
14.09.2015 06:00 14,0 C 88 % 1005,1 hPa 0,4 mm W 3,9 km/h (1 Bft)
14.09.2015 07:00 14,2 C 91 % 1005,1 hPa 0,4 mm W-SW 3,2 km/h (1 Bft)
14.09.2015 08:00 14,9 C 91 % 1006,1 hPa 0,0 mm W 8,9 km/h (2 Bft)
14.09.2015 09:00 15,9 C 89 % 1007,5 hPa 0,4 mm W 9,8 km/h (2 Bft)
14.09.2015 10:00 17,5 C 85 % 1007,9 hPa 0,0 mm W 11,4 km/h (2 Bft)
14.09.2015 11:00 17,0 C 81 % 1008,4 hPa 0,0 mm W 11,6 km/h (2 Bft)
14.09.2015 12:00 16,3 C 82 % 1009,2 hPa 0,0 mm W 11,3 km/h (2 Bft)
14.09.2015 13:00 16,1 C 83 % 1009,4 hPa 0,0 mm W 3,7 km/h (1 Bft)
14.09.2015 14:00 16,2 C 82 % 1009,2 hPa 0,0 mm O-SO 3,3 km/h (1 Bft)
14.09.2015 15:00 15,8 C 84 % 1009,7 hPa 1,2 mm O-SO 2,1 km/h (1 Bft)
14.09.2015 16:00 14,6 C 89 % 1010,7 hPa 0,4 mm SO 4,3 km/h (1 Bft)
14.09.2015 17:00 13,8 C 92 % 1010,5 hPa 3,2 mm O-SO 4,5 km/h (1 Bft)
14.09.2015 18:00 13,2 C 92 % 1010,0 hPa 1,0 mm S 7,2 km/h (2 Bft)
14.09.2015 19:00 12,5 C 92 % 1010,1 hPa 0,0 mm S 0,4 km/h (0 Bft)
14.09.2015 20:00 11,0 C 93 % 1010,2 hPa 0,0 mm S-SW 1,2 km/h (1 Bft)
14.09.2015 21:00 10,4 C 93 % 1010,6 hPa 0,0 mm SW 1,5 km/h (1 Bft)
14.09.2015 22:00 10,1 C 94 % 1010,9 hPa 0,0 mm W-SW 1,7 km/h (1 Bft)
14.09.2015 23:00 10,4 C 94 % 1011,5 hPa 0,0 mm W-SW 2,7 km/h (1 Bft)
15.09.2015 00:00 11,7 C 94 % 1012,5 hPa 0,0 mm W 7,4 km/h (2 Bft)
15.09.2015 01:00 11,5 C 93 % 1012,9 hPa 0,0 mm W 0,7 km/h (0 Bft)
15.09.2015 02:00 10,9 C 94 % 1013,4 hPa 0,0 mm W 0,3 km/h (0 Bft)
15.09.2015 03:00 11,0 C 94 % 1013,7 hPa 0,0 mm W 0,0 km/h (0 Bft)
15.09.2015 04:00 11,5 C 94 % 1013,7 hPa 0,0 mm W 0,0 km/h (0 Bft)
15.09.2015 05:00 11,6 C 94 % 1013,6 hPa 0,0 mm W 0,0 km/h (0 Bft)
15.09.2015 06:00 11,6 C 94 % 1013,1 hPa 0,0 mm W 0,0 km/h (0 Bft)
15.09.2015 07:00 11,9 C 94 % 1012,8 hPa 0,0 mm W 0,0 km/h (0 Bft)
15.09.2015 08:00 12,8 C 94 % 1012,1 hPa 0,0 mm W 0,1 km/h (0 Bft)
15.09.2015 09:00 14,3 C 91 % 1011,6 hPa 0,0 mm SO 4,5 km/h (1 Bft)
15.09.2015 10:00 16,3 C 79 % 1011,1 hPa 0,0 mm O 10,1 km/h (2 Bft)
15.09.2015 11:00 17,5 C 74 % 1010,5 hPa 0,0 mm O 12,8 km/h (3 Bft)
15.09.2015 12:00 18,2 C 72 % 1009,8 hPa 0,0 mm SO 11,7 km/h (2 Bft)
15.09.2015 13:00 18,2 C 71 % 1009,7 hPa 0,0 mm S-SO 7,0 km/h (2 Bft)
15.09.2015 14:00 18,6 C 71 % 1009,5 hPa 0,0 mm SO 5,3 km/h (1 Bft)
15.09.2015 15:00 18,3 C 73 % 1009,2 hPa 0,0 mm O-SO 3,2 km/h (1 Bft)
15.09.2015 16:00 18,5 C 73 % 1008,9 hPa 0,0 mm W-NW 1,6 km/h (1 Bft)
15.09.2015 17:00 18,4 C 74 % 1009,5 hPa 0,0 mm W 6,9 km/h (2 Bft)
15.09.2015 18:00 17,1 C 78 % 1010,2 hPa 0,0 mm W 3,3 km/h (1 Bft)
15.09.2015 19:00 15,9 C 83 % 1010,6 hPa 0,0 mm W 1,6 km/h (1 Bft)
15.09.2015 20:00 14,4 C 88 % 1010,6 hPa 0,0 mm W 0,3 km/h (0 Bft)
15.09.2015 21:00 13,3 C 90 % 1010,6 hPa 0,0 mm W 1,1 km/h (0 Bft)
15.09.2015 22:00 13,3 C 90 % 1010,4 hPa 0,0 mm W 1,1 km/h (0 Bft)
15.09.2015 23:00 11,8 C 91 % 1009,7 hPa 0,0 mm W 0,0 km/h (0 Bft)
16.09.2015 00:00 10,8 C 92 % 1009,1 hPa 0,0 mm W 0,0 km/h (0 Bft)
16.09.2015 01:00 10,3 C 92 % 1008,3 hPa 0,0 mm W 0,0 km/h (0 Bft)
16.09.2015 02:00 9,7 C 93 % 1007,3 hPa 0,0 mm W 0,3 km/h (0 Bft)
16.09.2015 03:00 9,1 C 93 % 1006,8 hPa 0,0 mm W 0,4 km/h (0 Bft)
16.09.2015 04:00 9,0 C 93 % 1006,0 hPa 0,0 mm W 0,1 km/h (0 Bft)
16.09.2015 05:00 9,8 C 93 % 1005,4 hPa 0,0 mm W 2,3 km/h (1 Bft)
16.09.2015 06:00 9,9 C 93 % 1004,9 hPa 0,0 mm S-SO 3,9 km/h (1 Bft)
16.09.2015 07:00 10,5 C 94 % 1004,8 hPa 0,0 mm W-SW 1,2 km/h (1 Bft)
16.09.2015 08:00 13,2 C 91 % 1004,6 hPa 0,0 mm S 3,3 km/h (1 Bft)
16.09.2015 09:00 14,6 C 88 % 1004,6 hPa 0,0 mm S-SO 1,5 km/h (1 Bft)
16.09.2015 10:00 16,8 C 81 % 1004,5 hPa 0,0 mm S-SO 3,2 km/h (1 Bft)
16.09.2015 11:00 19,5 C 77 % 1003,7 hPa 0,0 mm O-SO 7,5 km/h (2 Bft)
16.09.2015 12:00 21,3 C 75 % 1003,0 hPa 0,0 mm SO 8,4 km/h (2 Bft)
16.09.2015 13:00 22,9 C 72 % 1002,4 hPa 0,0 mm SO 7,9 km/h (2 Bft)
16.09.2015 14:00 23,8 C 71 % 1002,0 hPa 0,0 mm O-SO 9,1 km/h (2 Bft)
16.09.2015 15:00 24,4 C 70 % 1001,8 hPa 0,0 mm SO 5,7 km/h (1 Bft)
16.09.2015 16:00 24,3 C 70 % 1001,6 hPa 0,0 mm O-SO 6,3 km/h (2 Bft)
16.09.2015 17:00 22,8 C 75 % 1001,2 hPa 0,0 mm SO 3,7 km/h (1 Bft)
16.09.2015 18:00 21,1 C 78 % 1001,0 hPa 0,0 mm O 2,5 km/h (1 Bft)
16.09.2015 19:00 18,1 C 85 % 1000,9 hPa 0,0 mm W 2,3 km/h (1 Bft)
16.09.2015 20:00 16,5 C 87 % 1001,5 hPa 0,0 mm W 4,0 km/h (1 Bft)
16.09.2015 21:00 15,7 C 87 % 1001,8 hPa 0,0 mm W 4,5 km/h (1 Bft)
16.09.2015 22:00 14,6 C 88 % 1001,9 hPa 0,0 mm W 4,4 km/h (1 Bft)
16.09.2015 23:00 14,0 C 88 % 1002,1 hPa 0,0 mm W 6,0 km/h (2 Bft)
17.09.2015 00:00 13,8 C 87 % 1002,1 hPa 0,0 mm W 5,2 km/h (1 Bft)
17.09.2015 01:00 14,2 C 85 % 1002,1 hPa 0,0 mm W 6,3 km/h (2 Bft)
17.09.2015 02:00 14,8 C 81 % 1002,0 hPa 0,0 mm W 5,1 km/h (1 Bft)
17.09.2015 03:00 13,8 C 84 % 1002,1 hPa 0,0 mm W 6,1 km/h (2 Bft)
17.09.2015 04:00 13,2 C 86 % 1002,3 hPa 0,0 mm W 6,8 km/h (2 Bft)
17.09.2015 05:00 12,8 C 87 % 1002,4 hPa 0,0 mm W 6,6 km/h (2 Bft)
17.09.2015 06:00 12,5 C 87 % 1002,4 hPa 0,0 mm W 5,9 km/h (2 Bft)
17.09.2015 07:00 13,9 C 85 % 1002,6 hPa 0,0 mm W 5,6 km/h (1 Bft)
17.09.2015 08:00 18,1 C 76 % 1002,3 hPa 0,0 mm W 5,3 km/h (1 Bft)
17.09.2015 09:00 23,7 C 57 % 1001,7 hPa 0,0 mm S-SO 7,0 km/h (2 Bft)
17.09.2015 10:00 26,9 C 42 % 1001,6 hPa 0,0 mm O-SO 11,8 km/h (2 Bft)
17.09.2015 11:00 27,6 C 43 % 1000,7 hPa 0,0 mm O-NO 11,8 km/h (2 Bft)
17.09.2015 12:00 27,0 C 50 % 1000,0 hPa 0,0 mm S 4,8 km/h (1 Bft)
17.09.2015 13:00 29,2 C 40 % 999,6 hPa 0,0 mm SO 14,5 km/h (3 Bft)
17.09.2015 14:00 29,6 C 39 % 999,2 hPa 0,0 mm S-SO 8,4 km/h (2 Bft)
17.09.2015 15:00 28,4 C 50 % 999,2 hPa 0,0 mm W 4,5 km/h (1 Bft)
17.09.2015 16:00 25,5 C 57 % 1001,5 hPa 0,0 mm W-SW 23,1 km/h (4 Bft)
17.09.2015 17:00 20,9 C 66 % 1005,6 hPa 0,0 mm W-SW 29,4 km/h (5 Bft)
17.09.2015 18:00 18,4 C 66 % 1009,3 hPa 0,0 mm W 31,0 km/h (5 Bft)
17.09.2015 19:00 15,4 C 78 % 1012,1 hPa 0,0 mm W 16,2 km/h (3 Bft)
17.09.2015 20:00 14,5 C 81 % 1013,7 hPa 0,2 mm W 11,8 km/h (2 Bft)
17.09.2015 21:00 14,1 C 82 % 1014,1 hPa 0,0 mm W 3,0 km/h (1 Bft)
17.09.2015 22:00 13,4 C 86 % 1014,1 hPa 0,0 mm W-SW 1,5 km/h (1 Bft)
17.09.2015 23:00 13,2 C 86 % 1013,8 hPa 0,0 mm S-SO 1,7 km/h (1 Bft)
18.09.2015 00:00 13,4 C 86 % 1014,1 hPa 0,0 mm W-SW 1,3 km/h (1 Bft)
18.09.2015 01:00 13,5 C 86 % 1014,4 hPa 0,0 mm W-NW 1,5 km/h (1 Bft)
18.09.2015 02:00 13,6 C 86 % 1014,3 hPa 0,0 mm W-NW 1,1 km/h (0 Bft)
18.09.2015 03:00 13,5 C 87 % 1014,5 hPa 0,0 mm W-NW 0,7 km/h (0 Bft)
18.09.2015 04:00 13,5 C 87 % 1014,7 hPa 0,0 mm W-NW 0,4 km/h (0 Bft)
18.09.2015 05:00 13,4 C 88 % 1014,5 hPa 0,0 mm W-NW 0,9 km/h (0 Bft)
18.09.2015 06:00 13,3 C 87 % 1014,5 hPa 0,0 mm W-NW 2,1 km/h (1 Bft)
18.09.2015 07:00 13,0 C 89 % 1014,8 hPa 0,0 mm W-NW 0,4 km/h (0 Bft)
18.09.2015 08:00 13,1 C 90 % 1015,2 hPa 0,0 mm N-NW 1,3 km/h (1 Bft)
18.09.2015 09:00 14,2 C 85 % 1015,8 hPa 0,0 mm SO 2,3 km/h (1 Bft)
18.09.2015 10:00 14,4 C 83 % 1016,2 hPa 0,0 mm S-SO 4,8 km/h (1 Bft)
18.09.2015 11:00 14,8 C 82 % 1016,7 hPa 0,0 mm S-SO 4,0 km/h (1 Bft)
18.09.2015 12:00 14,9 C 83 % 1017,1 hPa 0,0 mm O 5,6 km/h (1 Bft)
18.09.2015 13:00 16,1 C 76 % 1017,2 hPa 0,0 mm S-SO 3,7 km/h (1 Bft)
18.09.2015 14:00 17,2 C 67 % 1017,2 hPa 0,0 mm W 3,6 km/h (1 Bft)
18.09.2015 15:00 17,5 C 69 % 1017,6 hPa 0,0 mm W 6,7 km/h (2 Bft)
18.09.2015 16:00 17,2 C 70 % 1018,1 hPa 0,0 mm W 2,1 km/h (1 Bft)
18.09.2015 17:00 16,8 C 73 % 1018,4 hPa 0,0 mm S-SO 2,0 km/h (1 Bft)
18.09.2015 18:00 15,8 C 81 % 1018,7 hPa 0,0 mm S-SO 0,4 km/h (0 Bft)
18.09.2015 19:00 14,4 C 84 % 1019,0 hPa 0,0 mm S-SO 0,0 km/h (0 Bft)
18.09.2015 20:00 13,9 C 88 % 1019,8 hPa 0,0 mm S-SO 0,3 km/h (0 Bft)
18.09.2015 21:00 13,5 C 89 % 1020,2 hPa 0,0 mm S-SO 0,1 km/h (0 Bft)
18.09.2015 22:00 13,0 C 89 % 1020,7 hPa 0,0 mm W-SW 2,3 km/h (1 Bft)
18.09.2015 23:00 12,4 C 89 % 1021,4 hPa 0,0 mm W-SW 2,8 km/h (1 Bft)
19.09.2015 00:00 11,5 C 90 % 1021,8 hPa 0,0 mm W 3,2 km/h (1 Bft)
19.09.2015 01:00 11,2 C 90 % 1021,9 hPa 0,0 mm W 1,5 km/h (1 Bft)
19.09.2015 02:00 9,8 C 91 % 1022,0 hPa 0,0 mm W 0,9 km/h (0 Bft)
19.09.2015 03:00 9,3 C 92 % 1021,9 hPa 0,0 mm W 2,5 km/h (1 Bft)
19.09.2015 04:00 8,5 C 93 % 1021,9 hPa 0,0 mm W 0,5 km/h (0 Bft)
19.09.2015 05:00 8,1 C 93 % 1021,9 hPa 0,0 mm W 2,1 km/h (1 Bft)
19.09.2015 06:00 8,0 C 93 % 1021,9 hPa 0,0 mm W 0,4 km/h (0 Bft)
19.09.2015 07:00 7,7 C 93 % 1022,2 hPa 0,0 mm W 0,0 km/h (0 Bft)
19.09.2015 08:00 9,6 C 93 % 1022,4 hPa 0,0 mm W 0,4 km/h (0 Bft)
19.09.2015 09:00 12,0 C 91 % 1022,4 hPa 0,0 mm W 1,5 km/h (1 Bft)
19.09.2015 10:00 14,7 C 86 % 1022,1 hPa 0,0 mm SO 5,6 km/h (1 Bft)
19.09.2015 11:00 16,1 C 82 % 1022,0 hPa 0,0 mm SO 9,1 km/h (2 Bft)
19.09.2015 12:00 16,4 C 81 % 1021,5 hPa 0,0 mm S-SO 7,8 km/h (2 Bft)
19.09.2015 13:00 16,8 C 79 % 1021,3 hPa 0,0 mm O-SO 4,5 km/h (1 Bft)
19.09.2015 14:00 17,0 C 79 % 1020,9 hPa 0,0 mm W-NW 3,6 km/h (1 Bft)
19.09.2015 15:00 16,5 C 81 % 1020,6 hPa 0,0 mm W 1,9 km/h (1 Bft)
19.09.2015 16:00 15,8 C 84 % 1020,4 hPa 0,0 mm W 1,5 km/h (1 Bft)
19.09.2015 17:00 15,4 C 85 % 1020,6 hPa 0,0 mm W 0,7 km/h (0 Bft)
19.09.2015 18:00 14,7 C 88 % 1020,5 hPa 0,0 mm W 0,3 km/h (0 Bft)
19.09.2015 19:00 14,4 C 89 % 1020,5 hPa 0,0 mm W 0,9 km/h (0 Bft)
19.09.2015 20:00 14,0 C 90 % 1020,8 hPa 0,0 mm W 1,3 km/h (1 Bft)
19.09.2015 21:00 13,7 C 91 % 1021,1 hPa 0,0 mm W 1,5 km/h (1 Bft)
19.09.2015 22:00 13,4 C 91 % 1021,3 hPa 0,0 mm W 1,9 km/h (1 Bft)
19.09.2015 23:00 13,2 C 91 % 1021,5 hPa 0,0 mm W 2,4 km/h (1 Bft)
20.09.2015 00:00 13,0 C 91 % 1021,5 hPa 0,0 mm W 4,0 km/h (1 Bft)
20.09.2015 01:00 13,3 C 90 % 1021,6 hPa 0,0 mm W 5,6 km/h (1 Bft)
20.09.2015 02:00 12,9 C 89 % 1021,6 hPa 0,2 mm W 9,3 km/h (2 Bft)
20.09.2015 03:00 12,7 C 89 % 1021,6 hPa 0,0 mm W 6,0 km/h (2 Bft)
20.09.2015 04:00 12,5 C 90 % 1021,4 hPa 0,0 mm W 6,5 km/h (2 Bft)
20.09.2015 05:00 12,3 C 91 % 1021,2 hPa 0,0 mm W 6,8 km/h (2 Bft)
20.09.2015 06:00 12,2 C 91 % 1021,4 hPa 0,2 mm W 6,0 km/h (2 Bft)
20.09.2015 07:00 12,0 C 92 % 1021,8 hPa 0,0 mm W 6,7 km/h (2 Bft)
20.09.2015 08:00 12,0 C 92 % 1022,4 hPa 0,0 mm W 9,0 km/h (2 Bft)
20.09.2015 09:00 12,4 C 90 % 1022,8 hPa 0,0 mm W 7,1 km/h (2 Bft)
20.09.2015 10:00 13,3 C 87 % 1023,0 hPa 0,0 mm W 9,7 km/h (2 Bft)
20.09.2015 11:00 14,4 C 82 % 1022,6 hPa 0,2 mm W 11,8 km/h (2 Bft)
20.09.2015 12:00 13,7 C 86 % 1022,4 hPa 0,2 mm W 8,2 km/h (2 Bft)
20.09.2015 13:00 14,4 C 83 % 1022,0 hPa 0,0 mm W 6,7 km/h (2 Bft)
20.09.2015 14:00 15,2 C 76 % 1021,7 hPa 0,0 mm W 11,0 km/h (2 Bft)
20.09.2015 15:00 14,4 C 79 % 1021,7 hPa 0,0 mm W 10,6 km/h (2 Bft)
20.09.2015 16:00 14,5 C 78 % 1021,7 hPa 0,0 mm W 8,0 km/h (2 Bft)
20.09.2015 17:00 14,1 C 80 % 1021,7 hPa 0,0 mm W 5,9 km/h (2 Bft)
20.09.2015 18:00 13,2 C 85 % 1021,8 hPa 0,0 mm W 2,8 km/h (1 Bft)
20.09.2015 19:00 11,7 C 88 % 1021,7 hPa 0,0 mm W 0,0 km/h (0 Bft)
20.09.2015 20:00 11,4 C 90 % 1021,9 hPa 0,4 mm W 0,4 km/h (0 Bft)
20.09.2015 21:00 11,1 C 91 % 1022,2 hPa 0,0 mm W 0,4 km/h (0 Bft)
20.09.2015 22:00 11,2 C 92 % 1022,6 hPa 0,0 mm W 0,0 km/h (0 Bft)
20.09.2015 23:00 11,0 C 92 % 1022,5 hPa 0,0 mm W 0,0 km/h (0 Bft)
Min-Datum _ 19.09.15 17.09.15 17.09.15 - - 14.09.15
_ Min-Zeit 07:05 14:00 14:50 - - 04:25
Minimum _ 7,6 C 33 % 998,7 hPa - - 0,0 km/h (0 Bft)
Max-Datum _ 17.09.15 14.09.15 20.09.15 14.09.15 - 17.09.15
_ Max-Zeit 14:55 22:05 10:20 17:40 - 18:25
Maximum _ 30,0 C 94 % 1023,2 hPa 3,2 mm - 38,6 km/h
W (5 Bft)
Durchschnitt _ 14,8 C 84 % 1012,6 hPa #8,4 mm W 4,6 km/h (1 Bft)